sensor_id;sensor_type;location;lat;lon;timestamp;P1;durP1;ratioP1;P2;durP2;ratioP2
51810;SDS011;52468;40.116;18.296;2023-07-08T00:02:14;9.30;;;4.23;;
51810;SDS011;52468;40.116;18.296;2023-07-08T00:04:43;10.67;;;3.80;;
51810;SDS011;52468;40.116;18.296;2023-07-08T00:07:11;9.77;;;4.73;;
51810;SDS011;52468;40.116;18.296;2023-07-08T00:09:42;8.70;;;5.03;;
51810;SDS011;52468;40.116;18.296;2023-07-08T00:12:10;13.90;;;4.80;;
51810;SDS011;52468;40.116;18.296;2023-07-08T00:14:41;11.30;;;4.63;;
51810;SDS011;52468;40.116;18.296;2023-07-08T00:17:12;13.93;;;5.40;;
51810;SDS011;52468;40.116;18.296;2023-07-08T00:19:40;8.43;;;5.03;;
51810;SDS011;52468;40.116;18.296;2023-07-08T00:22:10;14.47;;;5.43;;
51810;SDS011;52468;40.116;18.296;2023-07-08T00:24:43;8.38;;;5.15;;
51810;SDS011;52468;40.116;18.296;2023-07-08T00:27:12;9.60;;;4.63;;
51810;SDS011;52468;40.116;18.296;2023-07-08T00:29:40;13.20;;;4.70;;
51810;SDS011;52468;40.116;18.296;2023-07-08T00:32:09;13.60;;;5.50;;
51810;SDS011;52468;40.116;18.296;2023-07-08T00:34:39;5.73;;;4.57;;
51810;SDS011;52468;40.116;18.296;2023-07-08T00:37:09;9.20;;;4.40;;
51810;SDS011;52468;40.116;18.296;2023-07-08T00:39:39;9.60;;;4.60;;
51810;SDS011;52468;40.116;18.296;2023-07-08T00:42:17;7.20;;;4.17;;
51810;SDS011;52468;40.116;18.296;2023-07-08T00:44:46;6.17;;;3.73;;
51810;SDS011;52468;40.116;18.296;2023-07-08T00:47:15;13.17;;;4.97;;
51810;SDS011;52468;40.116;18.296;2023-07-08T00:49:50;12.13;;;5.47;;
51810;SDS011;52468;40.116;18.296;2023-07-08T00:52:24;14.50;;;4.57;;
51810;SDS011;52468;40.116;18.296;2023-07-08T00:55:12;11.37;;;4.00;;
51810;SDS011;52468;40.116;18.296;2023-07-08T00:57:41;12.43;;;3.47;;
51810;SDS011;52468;40.116;18.296;2023-07-08T01:00:14;10.17;;;4.03;;
51810;SDS011;52468;40.116;18.296;2023-07-08T01:02:46;8.20;;;4.22;;
51810;SDS011;52468;40.116;18.296;2023-07-08T01:05:22;8.83;;;4.07;;
51810;SDS011;52468;40.116;18.296;2023-07-08T01:07:54;11.93;;;4.32;;
51810;SDS011;52468;40.116;18.296;2023-07-08T01:10:32;13.47;;;5.67;;
51810;SDS011;52468;40.116;18.296;2023-07-08T01:13:06;9.63;;;4.33;;
51810;SDS011;52468;40.116;18.296;2023-07-08T01:15:39;9.87;;;4.60;;
51810;SDS011;52468;40.116;18.296;2023-07-08T01:18:12;13.80;;;6.40;;
51810;SDS011;52468;40.116;18.296;2023-07-08T01:20:45;13.33;;;4.33;;
51810;SDS011;52468;40.116;18.296;2023-07-08T01:23:14;9.87;;;4.90;;
51810;SDS011;52468;40.116;18.296;2023-07-08T01:25:43;11.83;;;5.30;;
51810;SDS011;52468;40.116;18.296;2023-07-08T01:28:11;7.33;;;4.10;;
51810;SDS011;52468;40.116;18.296;2023-07-08T01:30:41;10.77;;;4.37;;
51810;SDS011;52468;40.116;18.296;2023-07-08T01:33:15;11.63;;;3.87;;
51810;SDS011;52468;40.116;18.296;2023-07-08T01:35:46;12.43;;;5.83;;
51810;SDS011;52468;40.116;18.296;2023-07-08T01:38:18;14.87;;;6.07;;
51810;SDS011;52468;40.116;18.296;2023-07-08T01:40:52;16.17;;;7.03;;
51810;SDS011;52468;40.116;18.296;2023-07-08T01:43:22;11.60;;;6.63;;
51810;SDS011;52468;40.116;18.296;2023-07-08T01:45:50;9.80;;;6.53;;
51810;SDS011;52468;40.116;18.296;2023-07-08T01:48:20;13.60;;;6.40;;
51810;SDS011;52468;40.116;18.296;2023-07-08T01:50:51;11.20;;;7.37;;
51810;SDS011;52468;40.116;18.296;2023-07-08T01:53:32;11.60;;;5.80;;
51810;SDS011;52468;40.116;18.296;2023-07-08T01:56:07;8.83;;;5.20;;
51810;SDS011;52468;40.116;18.296;2023-07-08T01:58:37;7.73;;;4.03;;
51810;SDS011;52468;40.116;18.296;2023-07-08T02:01:05;13.90;;;4.27;;
51810;SDS011;52468;40.116;18.296;2023-07-08T02:03:33;9.30;;;4.37;;
51810;SDS011;52468;40.116;18.296;2023-07-08T02:06:02;8.30;;;4.40;;
51810;SDS011;52468;40.116;18.296;2023-07-08T02:08:31;14.93;;;6.00;;
51810;SDS011;52468;40.116;18.296;2023-07-08T02:10:59;14.23;;;4.80;;
51810;SDS011;52468;40.116;18.296;2023-07-08T02:13:28;10.33;;;5.30;;
51810;SDS011;52468;40.116;18.296;2023-07-08T02:15:56;14.33;;;4.03;;
51810;SDS011;52468;40.116;18.296;2023-07-08T02:18:26;12.50;;;5.30;;
51810;SDS011;52468;40.116;18.296;2023-07-08T02:20:54;9.07;;;4.00;;
51810;SDS011;52468;40.116;18.296;2023-07-08T02:23:22;9.57;;;4.53;;
51810;SDS011;52468;40.116;18.296;2023-07-08T02:25:54;9.10;;;5.20;;
51810;SDS011;52468;40.116;18.296;2023-07-08T02:28:22;9.63;;;5.90;;
51810;SDS011;52468;40.116;18.296;2023-07-08T02:30:50;13.57;;;6.10;;
51810;SDS011;52468;40.116;18.296;2023-07-08T02:33:19;9.63;;;6.20;;
51810;SDS011;52468;40.116;18.296;2023-07-08T02:35:47;9.77;;;5.23;;
51810;SDS011;52468;40.116;18.296;2023-07-08T02:38:15;10.73;;;5.67;;
51810;SDS011;52468;40.116;18.296;2023-07-08T02:40:42;14.07;;;5.43;;
51810;SDS011;52468;40.116;18.296;2023-07-08T02:43:10;13.17;;;7.53;;
51810;SDS011;52468;40.116;18.296;2023-07-08T02:45:38;8.50;;;4.87;;
51810;SDS011;52468;40.116;18.296;2023-07-08T02:48:07;14.17;;;4.77;;
51810;SDS011;52468;40.116;18.296;2023-07-08T02:50:35;8.67;;;5.53;;
51810;SDS011;52468;40.116;18.296;2023-07-08T02:53:03;9.30;;;6.03;;
51810;SDS011;52468;40.116;18.296;2023-07-08T02:55:31;8.97;;;5.17;;
51810;SDS011;52468;40.116;18.296;2023-07-08T02:57:59;10.40;;;5.90;;
51810;SDS011;52468;40.116;18.296;2023-07-08T03:00:26;12.70;;;6.07;;
51810;SDS011;52468;40.116;18.296;2023-07-08T03:02:55;10.40;;;5.10;;
51810;SDS011;52468;40.116;18.296;2023-07-08T03:05:23;9.07;;;5.37;;
51810;SDS011;52468;40.116;18.296;2023-07-08T03:07:51;13.07;;;5.67;;
51810;SDS011;52468;40.116;18.296;2023-07-08T03:10:18;8.77;;;4.43;;
51810;SDS011;52468;40.116;18.296;2023-07-08T03:12:46;12.33;;;5.43;;
51810;SDS011;52468;40.116;18.296;2023-07-08T03:15:14;8.30;;;5.43;;
51810;SDS011;52468;40.116;18.296;2023-07-08T03:17:42;18.00;;;4.83;;
51810;SDS011;52468;40.116;18.296;2023-07-08T03:20:11;6.77;;;5.20;;
51810;SDS011;52468;40.116;18.296;2023-07-08T03:22:40;11.03;;;5.37;;
51810;SDS011;52468;40.116;18.296;2023-07-08T03:25:08;11.40;;;5.50;;
51810;SDS011;52468;40.116;18.296;2023-07-08T03:27:37;11.87;;;5.70;;
51810;SDS011;52468;40.116;18.296;2023-07-08T03:30:05;8.47;;;4.80;;
51810;SDS011;52468;40.116;18.296;2023-07-08T03:32:35;7.60;;;4.50;;
51810;SDS011;52468;40.116;18.296;2023-07-08T03:35:03;8.90;;;4.53;;
51810;SDS011;52468;40.116;18.296;2023-07-08T03:37:31;10.40;;;5.23;;
51810;SDS011;52468;40.116;18.296;2023-07-08T03:39:59;8.60;;;6.10;;
51810;SDS011;52468;40.116;18.296;2023-07-08T03:42:27;12.87;;;4.70;;
51810;SDS011;52468;40.116;18.296;2023-07-08T03:44:55;9.63;;;5.23;;
51810;SDS011;52468;40.116;18.296;2023-07-08T03:47:24;7.57;;;4.10;;
51810;SDS011;52468;40.116;18.296;2023-07-08T03:49:52;8.03;;;4.40;;
51810;SDS011;52468;40.116;18.296;2023-07-08T03:52:21;10.67;;;4.77;;
51810;SDS011;52468;40.116;18.296;2023-07-08T03:54:49;10.07;;;4.03;;
51810;SDS011;52468;40.116;18.296;2023-07-08T03:57:19;7.50;;;4.07;;
51810;SDS011;52468;40.116;18.296;2023-07-08T03:59:48;8.17;;;4.13;;
51810;SDS011;52468;40.116;18.296;2023-07-08T04:02:16;9.83;;;4.27;;
51810;SDS011;52468;40.116;18.296;2023-07-08T04:04:44;5.90;;;3.33;;
51810;SDS011;52468;40.116;18.296;2023-07-08T04:07:12;6.83;;;4.13;;
51810;SDS011;52468;40.116;18.296;2023-07-08T04:09:39;10.10;;;5.20;;
51810;SDS011;52468;40.116;18.296;2023-07-08T04:12:11;5.57;;;3.90;;
51810;SDS011;52468;40.116;18.296;2023-07-08T04:14:39;7.47;;;3.47;;
51810;SDS011;52468;40.116;18.296;2023-07-08T04:17:09;5.27;;;3.27;;
51810;SDS011;52468;40.116;18.296;2023-07-08T04:19:38;6.00;;;3.60;;
51810;SDS011;52468;40.116;18.296;2023-07-08T04:22:07;7.53;;;3.77;;
51810;SDS011;52468;40.116;18.296;2023-07-08T04:24:35;6.93;;;3.47;;
51810;SDS011;52468;40.116;18.296;2023-07-08T04:27:03;6.67;;;3.50;;
51810;SDS011;52468;40.116;18.296;2023-07-08T04:29:32;9.20;;;4.13;;
51810;SDS011;52468;40.116;18.296;2023-07-08T04:32:00;4.97;;;3.50;;
51810;SDS011;52468;40.116;18.296;2023-07-08T04:34:27;6.87;;;2.93;;
51810;SDS011;52468;40.116;18.296;2023-07-08T04:36:55;6.15;;;3.70;;
51810;SDS011;52468;40.116;18.296;2023-07-08T04:39:23;8.93;;;4.38;;
51810;SDS011;52468;40.116;18.296;2023-07-08T04:41:51;6.35;;;3.95;;
51810;SDS011;52468;40.116;18.296;2023-07-08T04:44:19;4.88;;;2.78;;
51810;SDS011;52468;40.116;18.296;2023-07-08T04:46:51;6.03;;;3.80;;
51810;SDS011;52468;40.116;18.296;2023-07-08T04:49:22;5.72;;;3.78;;
51810;SDS011;52468;40.116;18.296;2023-07-08T04:51:51;7.55;;;3.60;;
51810;SDS011;52468;40.116;18.296;2023-07-08T04:54:19;9.65;;;4.32;;
51810;SDS011;52468;40.116;18.296;2023-07-08T04:56:47;4.28;;;3.72;;
51810;SDS011;52468;40.116;18.296;2023-07-08T04:59:17;5.83;;;3.13;;
51810;SDS011;52468;40.116;18.296;2023-07-08T05:01:45;10.77;;;3.70;;
51810;SDS011;52468;40.116;18.296;2023-07-08T05:04:16;7.80;;;4.70;;
51810;SDS011;52468;40.116;18.296;2023-07-08T05:06:44;7.13;;;3.37;;
51810;SDS011;52468;40.116;18.296;2023-07-08T05:09:12;7.20;;;3.60;;
51810;SDS011;52468;40.116;18.296;2023-07-08T05:11:42;5.53;;;4.03;;
51810;SDS011;52468;40.116;18.296;2023-07-08T05:14:10;5.80;;;3.67;;
51810;SDS011;52468;40.116;18.296;2023-07-08T05:16:39;8.27;;;4.07;;
51810;SDS011;52468;40.116;18.296;2023-07-08T05:19:08;9.93;;;4.90;;
51810;SDS011;52468;40.116;18.296;2023-07-08T05:21:37;5.73;;;4.17;;
51810;SDS011;52468;40.116;18.296;2023-07-08T05:24:05;7.43;;;3.80;;
51810;SDS011;52468;40.116;18.296;2023-07-08T05:26:34;7.07;;;4.43;;
51810;SDS011;52468;40.116;18.296;2023-07-08T05:29:01;12.80;;;4.30;;
51810;SDS011;52468;40.116;18.296;2023-07-08T05:31:29;5.43;;;3.80;;
51810;SDS011;52468;40.116;18.296;2023-07-08T05:34:08;7.47;;;3.90;;
51810;SDS011;52468;40.116;18.296;2023-07-08T05:36:36;10.97;;;4.23;;
51810;SDS011;52468;40.116;18.296;2023-07-08T05:39:04;7.40;;;4.40;;
51810;SDS011;52468;40.116;18.296;2023-07-08T05:41:31;8.20;;;3.97;;
51810;SDS011;52468;40.116;18.296;2023-07-08T05:43:59;11.07;;;5.30;;
51810;SDS011;52468;40.116;18.296;2023-07-08T05:46:27;7.50;;;4.10;;
51810;SDS011;52468;40.116;18.296;2023-07-08T05:48:55;9.40;;;4.47;;
51810;SDS011;52468;40.116;18.296;2023-07-08T05:51:23;5.87;;;3.70;;
51810;SDS011;52468;40.116;18.296;2023-07-08T05:53:51;8.50;;;4.67;;
51810;SDS011;52468;40.116;18.296;2023-07-08T05:56:19;9.90;;;5.00;;
51810;SDS011;52468;40.116;18.296;2023-07-08T05:58:47;10.57;;;4.37;;
51810;SDS011;52468;40.116;18.296;2023-07-08T06:01:15;11.47;;;5.00;;
51810;SDS011;52468;40.116;18.296;2023-07-08T06:03:43;7.97;;;5.60;;
51810;SDS011;52468;40.116;18.296;2023-07-08T06:06:11;8.13;;;5.50;;
51810;SDS011;52468;40.116;18.296;2023-07-08T06:08:39;5.97;;;4.20;;
51810;SDS011;52468;40.116;18.296;2023-07-08T06:11:08;9.63;;;4.63;;
51810;SDS011;52468;40.116;18.296;2023-07-08T06:13:36;16.80;;;5.35;;
51810;SDS011;52468;40.116;18.296;2023-07-08T06:16:04;10.80;;;4.63;;
51810;SDS011;52468;40.116;18.296;2023-07-08T06:18:32;8.07;;;5.00;;
51810;SDS011;52468;40.116;18.296;2023-07-08T06:21:00;7.95;;;5.15;;
51810;SDS011;52468;40.116;18.296;2023-07-08T06:23:29;9.33;;;5.47;;
51810;SDS011;52468;40.116;18.296;2023-07-08T06:25:57;12.85;;;5.72;;
51810;SDS011;52468;40.116;18.296;2023-07-08T06:28:25;9.63;;;4.63;;
51810;SDS011;52468;40.116;18.296;2023-07-08T06:30:53;9.57;;;5.15;;
51810;SDS011;52468;40.116;18.296;2023-07-08T06:33:20;11.90;;;5.90;;
51810;SDS011;52468;40.116;18.296;2023-07-08T06:35:48;8.48;;;4.13;;
51810;SDS011;52468;40.116;18.296;2023-07-08T06:38:16;7.78;;;4.43;;
51810;SDS011;52468;40.116;18.296;2023-07-08T06:40:44;5.45;;;4.40;;
51810;SDS011;52468;40.116;18.296;2023-07-08T06:43:12;6.30;;;4.63;;
51810;SDS011;52468;40.116;18.296;2023-07-08T06:46:09;7.57;;;4.82;;
51810;SDS011;52468;40.116;18.296;2023-07-08T06:48:37;8.52;;;4.95;;
51810;SDS011;52468;40.116;18.296;2023-07-08T06:51:05;11.68;;;4.93;;
51810;SDS011;52468;40.116;18.296;2023-07-08T06:53:33;9.95;;;5.75;;
51810;SDS011;52468;40.116;18.296;2023-07-08T06:56:01;14.93;;;5.47;;
51810;SDS011;52468;40.116;18.296;2023-07-08T06:58:29;8.07;;;4.95;;
51810;SDS011;52468;40.116;18.296;2023-07-08T07:00:57;9.45;;;4.32;;
51810;SDS011;52468;40.116;18.296;2023-07-08T07:03:25;8.63;;;4.90;;
51810;SDS011;52468;40.116;18.296;2023-07-08T07:05:53;10.85;;;6.15;;
51810;SDS011;52468;40.116;18.296;2023-07-08T07:08:21;12.10;;;5.85;;
51810;SDS011;52468;40.116;18.296;2023-07-08T07:10:49;11.20;;;5.75;;
51810;SDS011;52468;40.116;18.296;2023-07-08T07:13:17;9.48;;;5.15;;
51810;SDS011;52468;40.116;18.296;2023-07-08T07:15:45;11.88;;;5.97;;
51810;SDS011;52468;40.116;18.296;2023-07-08T07:18:18;10.45;;;4.88;;
51810;SDS011;52468;40.116;18.296;2023-07-08T07:20:46;7.25;;;5.65;;
51810;SDS011;52468;40.116;18.296;2023-07-08T07:23:20;11.02;;;6.10;;
51810;SDS011;52468;40.116;18.296;2023-07-08T07:25:49;8.05;;;5.28;;
51810;SDS011;52468;40.116;18.296;2023-07-08T07:28:17;11.18;;;6.20;;
51810;SDS011;52468;40.116;18.296;2023-07-08T07:30:45;7.25;;;5.22;;
51810;SDS011;52468;40.116;18.296;2023-07-08T07:33:14;8.80;;;5.50;;
51810;SDS011;52468;40.116;18.296;2023-07-08T07:35:45;8.18;;;5.80;;
51810;SDS011;52468;40.116;18.296;2023-07-08T07:38:13;10.95;;;4.95;;
51810;SDS011;52468;40.116;18.296;2023-07-08T07:40:43;13.90;;;5.57;;
51810;SDS011;52468;40.116;18.296;2023-07-08T07:43:12;8.93;;;5.45;;
51810;SDS011;52468;40.116;18.296;2023-07-08T07:45:40;9.70;;;6.03;;
51810;SDS011;52468;40.116;18.296;2023-07-08T07:48:07;8.98;;;5.13;;
51810;SDS011;52468;40.116;18.296;2023-07-08T07:50:35;11.45;;;4.55;;
51810;SDS011;52468;40.116;18.296;2023-07-08T07:53:03;6.43;;;4.97;;
51810;SDS011;52468;40.116;18.296;2023-07-08T07:55:31;8.43;;;6.38;;
51810;SDS011;52468;40.116;18.296;2023-07-08T07:57:59;7.57;;;5.10;;
51810;SDS011;52468;40.116;18.296;2023-07-08T08:00:28;9.52;;;5.90;;
51810;SDS011;52468;40.116;18.296;2023-07-08T08:02:57;10.20;;;5.05;;
51810;SDS011;52468;40.116;18.296;2023-07-08T08:05:25;5.93;;;5.05;;
51810;SDS011;52468;40.116;18.296;2023-07-08T08:07:53;8.30;;;5.68;;
51810;SDS011;52468;40.116;18.296;2023-07-08T08:10:20;8.07;;;5.15;;
51810;SDS011;52468;40.116;18.296;2023-07-08T08:12:48;8.00;;;4.88;;
51810;SDS011;52468;40.116;18.296;2023-07-08T08:15:20;10.57;;;4.85;;
51810;SDS011;52468;40.116;18.296;2023-07-08T08:17:48;8.23;;;5.57;;
51810;SDS011;52468;40.116;18.296;2023-07-08T08:20:19;8.52;;;5.63;;
51810;SDS011;52468;40.116;18.296;2023-07-08T08:22:48;7.20;;;5.18;;
51810;SDS011;52468;40.116;18.296;2023-07-08T08:25:17;10.02;;;6.45;;
51810;SDS011;52468;40.116;18.296;2023-07-08T08:27:47;8.50;;;5.95;;
51810;SDS011;52468;40.116;18.296;2023-07-08T08:30:15;6.47;;;5.05;;
51810;SDS011;52468;40.116;18.296;2023-07-08T08:32:43;7.57;;;5.30;;
51810;SDS011;52468;40.116;18.296;2023-07-08T08:35:11;9.60;;;5.32;;
51810;SDS011;52468;40.116;18.296;2023-07-08T08:37:39;7.90;;;5.18;;
51810;SDS011;52468;40.116;18.296;2023-07-08T08:40:08;11.40;;;5.22;;
51810;SDS011;52468;40.116;18.296;2023-07-08T08:42:42;9.80;;;6.22;;
51810;SDS011;52468;40.116;18.296;2023-07-08T08:45:16;8.93;;;5.47;;
51810;SDS011;52468;40.116;18.296;2023-07-08T08:47:49;8.10;;;5.17;;
51810;SDS011;52468;40.116;18.296;2023-07-08T08:50:27;7.43;;;5.40;;
51810;SDS011;52468;40.116;18.296;2023-07-08T08:53:01;7.38;;;5.63;;
51810;SDS011;52468;40.116;18.296;2023-07-08T08:55:36;7.25;;;4.72;;
51810;SDS011;52468;40.116;18.296;2023-07-08T08:58:06;11.82;;;5.57;;
51810;SDS011;52468;40.116;18.296;2023-07-08T09:05:57;6.30;;;5.20;;
51810;SDS011;52468;40.116;18.296;2023-07-08T09:08:31;9.77;;;5.97;;
51810;SDS011;52468;40.116;18.296;2023-07-08T09:12:04;5.60;;;4.65;;
51810;SDS011;52468;40.116;18.296;2023-07-08T09:14:12;5.90;;;5.03;;
51810;SDS011;52468;40.116;18.296;2023-07-08T09:19:35;5.63;;;4.70;;
51810;SDS011;52468;40.116;18.296;2023-07-08T09:22:28;6.57;;;5.38;;
51810;SDS011;52468;40.116;18.296;2023-07-08T09:27:55;7.47;;;5.35;;
51810;SDS011;52468;40.116;18.296;2023-07-08T09:30:23;5.97;;;5.38;;
51810;SDS011;52468;40.116;18.296;2023-07-08T09:32:52;8.40;;;4.93;;
51810;SDS011;52468;40.116;18.296;2023-07-08T09:35:24;7.72;;;6.38;;
51810;SDS011;52468;40.116;18.296;2023-07-08T09:37:55;9.23;;;6.22;;
51810;SDS011;52468;40.116;18.296;2023-07-08T09:40:32;8.52;;;6.93;;
51810;SDS011;52468;40.116;18.296;2023-07-08T09:43:02;9.23;;;6.22;;
51810;SDS011;52468;40.116;18.296;2023-07-08T09:45:46;8.20;;;6.72;;
51810;SDS011;52468;40.116;18.296;2023-07-08T09:50:47;7.57;;;6.43;;
51810;SDS011;52468;40.116;18.296;2023-07-08T09:53:16;10.82;;;6.88;;
51810;SDS011;52468;40.116;18.296;2023-07-08T09:55:44;8.55;;;7.15;;
51810;SDS011;52468;40.116;18.296;2023-07-08T09:58:13;6.00;;;5.40;;
51810;SDS011;52468;40.116;18.296;2023-07-08T10:00:53;9.38;;;7.25;;
51810;SDS011;52468;40.116;18.296;2023-07-08T10:03:28;8.00;;;6.45;;
51810;SDS011;52468;40.116;18.296;2023-07-08T10:06:03;7.63;;;6.38;;
51810;SDS011;52468;40.116;18.296;2023-07-08T10:08:41;7.07;;;6.23;;
51810;SDS011;52468;40.116;18.296;2023-07-08T10:11:12;10.30;;;6.35;;
51810;SDS011;52468;40.116;18.296;2023-07-08T10:13:46;7.22;;;5.72;;
51810;SDS011;52468;40.116;18.296;2023-07-08T10:16:31;7.05;;;6.35;;
51810;SDS011;52468;40.116;18.296;2023-07-08T10:19:00;6.85;;;5.82;;
51810;SDS011;52468;40.116;18.296;2023-07-08T10:21:36;8.13;;;7.18;;
51810;SDS011;52468;40.116;18.296;2023-07-08T10:24:29;7.45;;;6.30;;
51810;SDS011;52468;40.116;18.296;2023-07-08T10:35:42;10.27;;;6.65;;
51810;SDS011;52468;40.116;18.296;2023-07-08T10:44:02;5.72;;;4.90;;
51810;SDS011;52468;40.116;18.296;2023-07-08T10:52:22;5.78;;;5.20;;
51810;SDS011;52468;40.116;18.296;2023-07-08T10:55:08;7.95;;;6.38;;
51810;SDS011;52468;40.116;18.296;2023-07-08T11:08:58;6.97;;;5.25;;
51810;SDS011;52468;40.116;18.296;2023-07-08T11:19:49;11.65;;;5.60;;
51810;SDS011;52468;40.116;18.296;2023-07-08T11:22:28;5.82;;;4.72;;
51810;SDS011;52468;40.116;18.296;2023-07-08T11:24:58;6.88;;;5.20;;
51810;SDS011;52468;40.116;18.296;2023-07-08T11:27:33;5.85;;;5.25;;
51810;SDS011;52468;40.116;18.296;2023-07-08T11:30:06;6.78;;;4.70;;
51810;SDS011;52468;40.116;18.296;2023-07-08T11:32:41;5.85;;;5.00;;
51810;SDS011;52468;40.116;18.296;2023-07-08T11:35:22;7.30;;;5.30;;
51810;SDS011;52468;40.116;18.296;2023-07-08T11:37:55;7.50;;;5.55;;
51810;SDS011;52468;40.116;18.296;2023-07-08T11:40:24;6.50;;;5.43;;
51810;SDS011;52468;40.116;18.296;2023-07-08T11:42:52;6.22;;;5.13;;
51810;SDS011;52468;40.116;18.296;2023-07-08T11:45:30;6.93;;;5.32;;
51810;SDS011;52468;40.116;18.296;2023-07-08T11:48:27;6.95;;;5.63;;
51810;SDS011;52468;40.116;18.296;2023-07-08T11:50:58;4.88;;;4.35;;
51810;SDS011;52468;40.116;18.296;2023-07-08T11:53:46;5.35;;;4.60;;
51810;SDS011;52468;40.116;18.296;2023-07-08T11:58:50;6.00;;;5.03;;
51810;SDS011;52468;40.116;18.296;2023-07-08T12:01:30;9.23;;;4.90;;
51810;SDS011;52468;40.116;18.296;2023-07-08T12:09:14;4.57;;;3.72;;
51810;SDS011;52468;40.116;18.296;2023-07-08T12:11:48;5.63;;;4.22;;
51810;SDS011;52468;40.116;18.296;2023-07-08T12:14:32;8.88;;;4.90;;
51810;SDS011;52468;40.116;18.296;2023-07-08T12:17:00;7.07;;;4.90;;
51810;SDS011;52468;40.116;18.296;2023-07-08T12:19:28;5.28;;;4.53;;
51810;SDS011;52468;40.116;18.296;2023-07-08T12:22:01;7.35;;;4.53;;
51810;SDS011;52468;40.116;18.296;2023-07-08T12:24:29;5.68;;;4.43;;
51810;SDS011;52468;40.116;18.296;2023-07-08T12:26:57;5.97;;;4.45;;
51810;SDS011;52468;40.116;18.296;2023-07-08T12:29:24;7.30;;;5.03;;
51810;SDS011;52468;40.116;18.296;2023-07-08T12:31:53;6.10;;;5.38;;
51810;SDS011;52468;40.116;18.296;2023-07-08T12:34:21;8.20;;;5.82;;
51810;SDS011;52468;40.116;18.296;2023-07-08T12:36:51;5.85;;;4.07;;
51810;SDS011;52468;40.116;18.296;2023-07-08T12:39:20;6.38;;;4.40;;
51810;SDS011;52468;40.116;18.296;2023-07-08T12:41:48;5.47;;;4.00;;
51810;SDS011;52468;40.116;18.296;2023-07-08T12:44:21;5.40;;;4.32;;
51810;SDS011;52468;40.116;18.296;2023-07-08T12:46:52;7.07;;;5.43;;
51810;SDS011;52468;40.116;18.296;2023-07-08T12:49:22;5.18;;;4.68;;
51810;SDS011;52468;40.116;18.296;2023-07-08T12:51:54;5.60;;;4.68;;
51810;SDS011;52468;40.116;18.296;2023-07-08T12:54:22;5.80;;;3.83;;
51810;SDS011;52468;40.116;18.296;2023-07-08T12:56:50;5.97;;;4.55;;
51810;SDS011;52468;40.116;18.296;2023-07-08T12:59:19;7.68;;;5.22;;
51810;SDS011;52468;40.116;18.296;2023-07-08T13:01:50;5.93;;;4.72;;
51810;SDS011;52468;40.116;18.296;2023-07-08T13:04:20;6.35;;;4.82;;
51810;SDS011;52468;40.116;18.296;2023-07-08T13:06:48;6.93;;;4.88;;
51810;SDS011;52468;40.116;18.296;2023-07-08T13:12:14;5.90;;;4.63;;
51810;SDS011;52468;40.116;18.296;2023-07-08T13:14:47;9.32;;;4.60;;
51810;SDS011;52468;40.116;18.296;2023-07-08T13:17:16;5.25;;;4.22;;
51810;SDS011;52468;40.116;18.296;2023-07-08T13:19:44;6.78;;;4.85;;
51810;SDS011;52468;40.116;18.296;2023-07-08T13:22:16;4.78;;;3.42;;
51810;SDS011;52468;40.116;18.296;2023-07-08T13:24:48;6.63;;;4.55;;
51810;SDS011;52468;40.116;18.296;2023-07-08T13:27:25;8.60;;;4.07;;
51810;SDS011;52468;40.116;18.296;2023-07-08T13:29:55;7.20;;;3.72;;
51810;SDS011;52468;40.116;18.296;2023-07-08T13:32:34;4.90;;;3.55;;
51810;SDS011;52468;40.116;18.296;2023-07-08T13:35:05;5.72;;;3.42;;
51810;SDS011;52468;40.116;18.296;2023-07-08T13:37:47;4.22;;;3.42;;
51810;SDS011;52468;40.116;18.296;2023-07-08T13:40:17;3.95;;;3.42;;
51810;SDS011;52468;40.116;18.296;2023-07-08T13:42:51;4.90;;;3.20;;
51810;SDS011;52468;40.116;18.296;2023-07-08T13:45:24;3.25;;;2.95;;
51810;SDS011;52468;40.116;18.296;2023-07-08T13:47:58;8.18;;;4.38;;
51810;SDS011;52468;40.116;18.296;2023-07-08T13:50:29;5.18;;;3.35;;
51810;SDS011;52468;40.116;18.296;2023-07-08T13:53:15;4.97;;;3.30;;
51810;SDS011;52468;40.116;18.296;2023-07-08T13:55:44;4.30;;;3.08;;
51810;SDS011;52468;40.116;18.296;2023-07-08T13:58:14;3.97;;;2.78;;
51810;SDS011;52468;40.116;18.296;2023-07-08T14:00:44;5.28;;;3.63;;
51810;SDS011;52468;40.116;18.296;2023-07-08T14:03:12;4.45;;;3.35;;
51810;SDS011;52468;40.116;18.296;2023-07-08T14:08:13;3.95;;;3.25;;
51810;SDS011;52468;40.116;18.296;2023-07-08T14:10:43;3.85;;;2.90;;
51810;SDS011;52468;40.116;18.296;2023-07-08T14:13:11;6.18;;;3.40;;
51810;SDS011;52468;40.116;18.296;2023-07-08T14:15:39;5.57;;;2.70;;
51810;SDS011;52468;40.116;18.296;2023-07-08T14:18:08;4.25;;;3.15;;
51810;SDS011;52468;40.116;18.296;2023-07-08T14:20:38;5.18;;;3.38;;
51810;SDS011;52468;40.116;18.296;2023-07-08T14:23:07;3.00;;;2.50;;
51810;SDS011;52468;40.116;18.296;2023-07-08T14:25:35;5.55;;;3.20;;
51810;SDS011;52468;40.116;18.296;2023-07-08T14:28:03;4.72;;;2.65;;
51810;SDS011;52468;40.116;18.296;2023-07-08T14:30:33;4.30;;;3.70;;
51810;SDS011;52468;40.116;18.296;2023-07-08T14:33:04;6.50;;;3.50;;
51810;SDS011;52468;40.116;18.296;2023-07-08T14:35:33;15.32;;;11.93;;
51810;SDS011;52468;40.116;18.296;2023-07-08T14:38:00;13.40;;;11.05;;
51810;SDS011;52468;40.116;18.296;2023-07-08T14:40:36;7.18;;;5.13;;
51810;SDS011;52468;40.116;18.296;2023-07-08T14:43:18;5.90;;;3.85;;
51810;SDS011;52468;40.116;18.296;2023-07-08T14:45:52;4.35;;;3.38;;
51810;SDS011;52468;40.116;18.296;2023-07-08T14:48:27;5.65;;;3.13;;
51810;SDS011;52468;40.116;18.296;2023-07-08T14:50:57;5.28;;;3.88;;
51810;SDS011;52468;40.116;18.296;2023-07-08T14:53:25;5.15;;;2.88;;
51810;SDS011;52468;40.116;18.296;2023-07-08T14:55:56;3.50;;;2.78;;
51810;SDS011;52468;40.116;18.296;2023-07-08T14:58:29;5.40;;;3.10;;
51810;SDS011;52468;40.116;18.296;2023-07-08T15:00:59;4.70;;;4.18;;
51810;SDS011;52468;40.116;18.296;2023-07-08T15:03:35;7.07;;;4.97;;
51810;SDS011;52468;40.116;18.296;2023-07-08T15:06:04;5.28;;;4.15;;
51810;SDS011;52468;40.116;18.296;2023-07-08T15:08:37;6.45;;;3.00;;
51810;SDS011;52468;40.116;18.296;2023-07-08T15:11:05;3.90;;;3.05;;
51810;SDS011;52468;40.116;18.296;2023-07-08T15:13:36;4.30;;;3.60;;
51810;SDS011;52468;40.116;18.296;2023-07-08T15:16:05;5.25;;;3.50;;
51810;SDS011;52468;40.116;18.296;2023-07-08T15:18:34;5.35;;;4.15;;
51810;SDS011;52468;40.116;18.296;2023-07-08T15:21:02;5.07;;;4.20;;
51810;SDS011;52468;40.116;18.296;2023-07-08T15:23:31;6.93;;;5.20;;
51810;SDS011;52468;40.116;18.296;2023-07-08T15:25:59;4.43;;;3.75;;
51810;SDS011;52468;40.116;18.296;2023-07-08T15:28:37;7.20;;;4.60;;
51810;SDS011;52468;40.116;18.296;2023-07-08T15:31:20;7.10;;;5.68;;
51810;SDS011;52468;40.116;18.296;2023-07-08T15:33:53;6.88;;;5.43;;
51810;SDS011;52468;40.116;18.296;2023-07-08T15:36:21;5.60;;;4.55;;
51810;SDS011;52468;40.116;18.296;2023-07-08T15:38:49;5.40;;;4.63;;
51810;SDS011;52468;40.116;18.296;2023-07-08T15:41:21;6.63;;;5.05;;
51810;SDS011;52468;40.116;18.296;2023-07-08T15:43:53;4.43;;;3.45;;
51810;SDS011;52468;40.116;18.296;2023-07-08T15:46:25;4.50;;;4.10;;
51810;SDS011;52468;40.116;18.296;2023-07-08T15:49:00;6.75;;;4.43;;
51810;SDS011;52468;40.116;18.296;2023-07-08T15:51:28;5.15;;;3.75;;
51810;SDS011;52468;40.116;18.296;2023-07-08T15:53:56;5.65;;;4.22;;
51810;SDS011;52468;40.116;18.296;2023-07-08T15:56:24;4.38;;;3.88;;
51810;SDS011;52468;40.116;18.296;2023-07-08T15:58:53;5.25;;;4.63;;